Time;durP1;ratioP1;P1;durP2;ratioP2;P2;SDS_P1;SDS_P2;PMS_P1;PMS_P2;Temp;Humidity;BMP_temperature;BMP_pressure;BME280_temperature;BME280_humidity;BME280_pressure;Samples;Min_cycle;Max_cycle;Signal;HPM_P1;HPM_P2
2022/08/09 00:01:57;;;;;;;8.70;4.35;;;;;;;23.84;41.96;102859.75;5072212;28;20429;-76
2022/08/09 00:04:23;;;;;;;6.78;4.28;;;;;;;23.90;42.14;102863.91;5072099;28;20020;-76
2022/08/09 00:06:49;;;;;;;6.32;4.30;;;;;;;24.03;41.71;102860.75;5073234;28;20500;-88
2022/08/09 00:09:16;;;;;;;6.53;3.97;;;;;;;23.67;42.71;102867.22;5075872;28;20016;-81
2022/08/09 00:11:44;;;;;;;7.35;4.45;;;;;;;23.63;42.23;102868.25;5075622;28;20559;-80
2022/08/09 00:14:10;;;;;;;5.70;4.53;;;;;;;23.61;42.21;102867.81;5075730;28;20027;-76
2022/08/09 00:16:36;;;;;;;5.70;3.90;;;;;;;23.57;42.16;102864.84;5075580;28;20024;-77
2022/08/09 00:19:02;;;;;;;9.25;5.25;;;;;;;23.60;42.21;102863.38;5075670;28;20043;-76
2022/08/09 00:21:28;;;;;;;7.50;5.00;;;;;;;23.59;42.64;102867.31;5075843;28;20460;-88
2022/08/09 00:23:54;;;;;;;9.15;5.03;;;;;;;23.64;42.32;102861.50;5075693;28;20103;-88
2022/08/09 00:26:21;;;;;;;9.52;5.15;;;;;;;23.47;42.59;102855.00;5075464;28;20044;-85
2022/08/09 00:28:46;;;;;;;9.50;5.32;;;;;;;23.41;42.80;102863.94;5075770;28;20016;-87
2022/08/09 00:31:12;;;;;;;6.57;4.90;;;;;;;23.31;43.48;102856.88;5075481;28;20078;-86
2022/08/09 00:33:38;;;;;;;8.23;4.60;;;;;;;23.42;43.06;102851.63;5075414;28;20016;-87
2022/08/09 00:36:04;;;;;;;5.95;4.85;;;;;;;23.22;43.87;102854.22;5075525;28;20033;-88
2022/08/09 00:38:29;;;;;;;9.52;5.22;;;;;;;23.24;43.80;102851.88;5075302;28;20060;-85
2022/08/09 00:40:55;;;;;;;9.50;5.47;;;;;;;23.25;43.60;102847.94;5075535;28;20028;-77
2022/08/09 00:43:22;;;;;;;10.82;5.35;;;;;;;23.30;43.80;102846.06;5075128;28;20064;-87
2022/08/09 00:45:47;;;;;;;11.18;5.70;;;;;;;23.28;43.62;102854.81;5075126;28;20027;-77
2022/08/09 00:48:13;;;;;;;12.35;5.53;;;;;;;23.26;43.84;102855.13;5075335;28;20103;-88
2022/08/09 00:50:39;;;;;;;7.65;5.30;;;;;;;23.26;43.92;102854.31;5075315;28;20029;-86
2022/08/09 00:53:05;;;;;;;9.25;5.72;;;;;;;23.33;43.94;102846.19;5075101;28;20017;-79
2022/08/09 00:55:31;;;;;;;15.57;5.68;;;;;;;23.39;43.91;102846.75;5074919;28;20021;-77
2022/08/09 00:57:56;;;;;;;10.07;6.07;;;;;;;23.44;43.55;102840.94;5074827;28;20032;-78
2022/08/09 01:00:22;;;;;;;8.88;6.18;;;;;;;23.50;43.65;102848.75;5075067;28;20024;-77
2022/08/09 01:03:34;;;;;;;9.75;5.50;;;;;;;23.50;43.64;102845.09;5074709;28;20078;-88
2022/08/09 01:06:08;;;;;;;15.77;6.68;;;;;;;23.46;43.60;102842.22;5044584;28;20036;-76
2022/08/09 01:08:45;;;;;;;8.63;5.03;;;;;;;23.41;43.36;102845.25;5074738;28;20081;-77
2022/08/09 01:11:17;;;;;;;8.45;5.60;;;;;;;23.40;43.67;102837.22;5074750;28;20029;-77
2022/08/09 01:13:57;;;;;;;8.43;5.47;;;;;;;23.51;43.12;102830.84;5074774;28;20484;-88
2022/08/09 01:16:26;;;;;;;7.35;5.25;;;;;;;23.61;42.86;102843.50;5074562;28;20024;-78
2022/08/09 01:18:56;;;;;;;6.05;4.90;;;;;;;23.63;42.62;102838.38;5055871;28;20024;-81
2022/08/09 01:21:46;;;;;;;11.88;5.78;;;;;;;23.57;42.88;102838.94;5074669;28;20105;-87
2022/08/09 01:24:23;;;;;;;;;;;;;;;23.51;43.30;102841.19;5074918;28;20033;-77
2022/08/09 01:27:00;;;;;;;7.28;5.15;;;;;;;23.52;42.67;102835.25;5074221;28;19958;-87
2022/08/09 01:29:32;;;;;;;7.22;5.43;;;;;;;23.54;42.99;102838.50;5074509;28;20055;-88
2022/08/09 01:32:02;;;;;;;10.02;6.32;;;;;;;23.46;43.21;102841.41;5074278;28;20020;-77
2022/08/09 01:34:30;;;;;;;9.50;6.18;;;;;;;23.41;43.41;102847.22;5045713;28;20069;-86
2022/08/09 01:36:59;;;;;;;9.40;5.43;;;;;;;23.45;43.04;102848.16;5034195;28;20388;-77
2022/08/09 01:39:26;;;;;;;11.43;6.25;;;;;;;23.49;43.20;102843.47;5034186;28;20070;-76
2022/08/09 01:41:54;;;;;;;9.63;5.78;;;;;;;23.44;43.20;102841.75;5034214;28;20108;-77
2022/08/09 01:44:21;;;;;;;9.52;6.65;;;;;;;23.45;43.35;102853.75;5047059;28;20029;-88
2022/08/09 01:46:49;;;;;;;10.63;5.85;;;;;;;23.47;43.47;102849.41;5054009;28;20036;-77
2022/08/09 01:49:18;;;;;;;6.57;5.22;;;;;;;23.47;43.58;102849.41;5053939;28;20032;-86
2022/08/09 01:51:58;;;;;;;7.38;5.85;;;;;;;23.49;43.53;102851.84;5053820;28;20025;-77
2022/08/09 01:54:43;;;;;;;8.55;5.95;;;;;;;23.46;43.39;102850.59;5053669;28;20033;-86
2022/08/09 01:57:12;;;;;;;10.38;6.03;;;;;;;23.43;43.41;102851.31;5053702;28;20379;-76
2022/08/09 01:59:42;;;;;;;10.57;5.90;;;;;;;23.32;43.72;102858.50;5053869;28;20414;-77
2022/08/09 02:02:09;;;;;;;;;;;;;;;23.21;43.78;102851.78;5052930;28;20021;-87
2022/08/09 02:04:37;;;;;;;8.35;5.97;;;;;;;23.35;43.26;102856.97;5053661;28;19913;-87
2022/08/09 02:07:14;;;;;;;10.68;6.93;;;;;;;23.28;43.84;102843.66;5053598;28;20040;-86
2022/08/09 02:09:52;;;;;;;11.05;6.35;;;;;;;23.36;43.26;102845.50;5053471;28;20033;-77
2022/08/09 02:12:21;;;;;;;6.25;5.40;;;;;;;23.37;43.60;102847.13;5052259;28;20021;-77
2022/08/09 02:14:52;;;;;;;8.73;5.93;;;;;;;23.36;43.65;102850.25;5053292;28;20032;-77
2022/08/09 02:17:23;;;;;;;8.75;6.43;;;;;;;23.30;43.43;102852.47;5053232;28;20035;-76
2022/08/09 02:19:49;;;;;;;9.70;6.95;;;;;;;23.24;43.35;102839.91;5053322;28;20488;-87
2022/08/09 02:22:39;;;;;;;7.88;6.43;;;;;;;23.32;43.11;102852.94;5053196;28;20032;-78
2022/08/09 02:25:14;;;;;;;11.40;6.22;;;;;;;23.32;42.80;102855.72;5051852;28;20384;-76
2022/08/09 02:27:44;;;;;;;9.63;6.10;;;;;;;23.29;42.93;102855.63;5053243;28;20028;-88
2022/08/09 02:30:11;;;;;;;9.15;5.72;;;;;;;23.20;43.04;102850.97;5052458;28;20083;-77
2022/08/09 02:32:42;;;;;;;11.65;5.75;;;;;;;23.29;42.72;102852.81;5053007;28;20107;-86
2022/08/09 02:35:16;;;;;;;9.88;6.13;;;;;;;23.35;42.86;102852.25;5078559;28;20040;-77
2022/08/09 02:37:43;;;;;;;9.88;6.68;;;;;;;23.36;42.82;102853.88;5075254;28;20032;-86
2022/08/09 02:40:15;;;;;;;9.23;6.50;;;;;;;23.38;43.12;102847.94;5093201;28;20028;-76
2022/08/09 02:42:43;;;;;;;9.25;6.07;;;;;;;23.21;43.49;102852.59;5093279;28;20102;-76
2022/08/09 02:45:15;;;;;;;9.88;6.28;;;;;;;23.14;43.38;102849.56;5078401;28;20075;-77
2022/08/09 02:47:43;;;;;;;10.02;5.45;;;;;;;23.11;43.57;102849.44;5053010;28;20526;-76
2022/08/09 02:50:24;;;;;;;8.90;5.85;;;;;;;23.11;43.39;102841.88;5052949;28;20025;-76
2022/08/09 02:52:54;;;;;;;13.00;6.20;;;;;;;23.15;43.00;102836.44;5052886;28;20032;-80
2022/08/09 02:55:22;;;;;;;7.57;6.03;;;;;;;23.13;43.37;102839.56;5052767;28;20036;-84
2022/08/09 02:57:49;;;;;;;7.05;5.32;;;;;;;23.14;43.17;102841.19;5052737;28;20037;-87
2022/08/09 03:00:16;;;;;;;9.05;5.43;;;;;;;23.02;43.33;102838.41;5052621;28;20131;-77
2022/08/09 03:02:46;;;;;;;9.68;6.22;;;;;;;22.91;44.04;102848.41;5052626;28;20021;-77
2022/08/09 03:05:13;;;;;;;10.73;7.00;;;;;;;22.93;43.67;102851.63;5052811;28;20025;-87
2022/08/09 03:07:40;;;;;;;7.93;6.03;;;;;;;23.01;43.57;102839.56;5052670;28;20486;-86
2022/08/09 03:10:06;;;;;;;9.25;6.75;;;;;;;23.03;43.80;102845.59;5052733;28;20053;-78
2022/08/09 03:12:34;;;;;;;8.60;6.25;;;;;;;23.03;43.80;102848.38;5052744;28;20025;-81
2022/08/09 03:15:01;;;;;;;8.60;6.70;;;;;;;23.03;43.77;102840.03;5052674;28;20086;-76
2022/08/09 03:17:28;;;;;;;12.15;7.03;;;;;;;23.06;43.75;102838.53;5052731;28;20518;-89
2022/08/09 03:19:59;;;;;;;8.18;6.63;;;;;;;23.00;44.13;102835.16;5052599;28;20112;-76
2022/08/09 03:22:26;;;;;;;10.05;7.45;;;;;;;22.99;43.90;102839.09;5052594;28;20056;-77
2022/08/09 03:24:52;;;;;;;9.98;6.35;;;;;;;22.98;44.24;102837.47;5052747;28;20411;-77
2022/08/09 03:27:19;;;;;;;8.32;6.18;;;;;;;23.00;43.76;102831.56;5052474;28;20150;-77
2022/08/09 03:29:46;;;;;;;8.50;6.57;;;;;;;22.85;44.11;102845.00;5052339;28;20112;-76
2022/08/09 03:32:12;;;;;;;10.90;6.07;;;;;;;22.87;43.93;102833.50;5052569;28;20029;-76
2022/08/09 03:34:38;;;;;;;11.13;6.07;;;;;;;22.74;44.17;102834.63;5052341;28;20041;-76
2022/08/09 03:37:03;;;;;;;8.70;6.05;;;;;;;22.64;44.27;102831.13;5052431;28;20033;-76
2022/08/09 03:39:29;;;;;;;11.95;6.60;;;;;;;22.69;44.48;102832.88;5052496;28;20104;-87
2022/08/09 03:41:55;;;;;;;8.52;5.82;;;;;;;22.74;44.32;102826.25;5053588;28;20360;-76
2022/08/09 03:44:23;;;;;;;9.75;7.10;;;;;;;22.74;44.25;102831.81;5056291;28;20036;-76
2022/08/09 03:46:49;;;;;;;9.38;6.30;;;;;;;22.67;44.45;102824.03;5056518;28;20036;-78
2022/08/09 03:49:17;;;;;;;9.95;6.10;;;;;;;22.59;44.39;102827.72;5056285;28;20025;-87
2022/08/09 03:51:45;;;;;;;10.13;6.72;;;;;;;22.60;44.18;102819.06;5056138;28;20548;-76
2022/08/09 03:54:13;;;;;;;9.98;6.72;;;;;;;22.55;44.45;102830.41;5055892;28;20116;-76
2022/08/09 03:56:40;;;;;;;9.30;6.47;;;;;;;22.59;44.36;102822.97;5056032;28;20029;-76
2022/08/09 03:59:06;;;;;;;9.73;6.50;;;;;;;22.59;44.66;102820.19;5055818;28;20049;-76
2022/08/09 04:01:33;;;;;;;14.85;7.70;;;;;;;22.59;44.60;102825.75;5037921;28;20174;-86
2022/08/09 04:04:00;;;;;;;10.75;7.10;;;;;;;22.56;44.97;102817.28;5055962;28;20033;-76
2022/08/09 04:06:26;;;;;;;8.60;7.50;;;;;;;22.62;44.77;102822.31;5055885;28;20551;-75
2022/08/09 04:08:51;;;;;;;9.77;6.82;;;;;;;22.64;44.93;102811.63;5055782;28;20108;-76
2022/08/09 04:11:17;;;;;;;7.88;6.18;;;;;;;22.64;45.04;102828.34;5056135;28;20033;-79
2022/08/09 04:13:43;;;;;;;9.25;6.80;;;;;;;22.62;44.92;102833.44;5055712;28;20036;-77
2022/08/09 04:16:08;;;;;;;8.88;6.30;;;;;;;22.69;44.67;102825.34;5055837;28;20033;-76
2022/08/09 04:18:34;;;;;;;12.35;6.30;;;;;;;22.70;44.77;102823.34;5055527;28;20033;-86
2022/08/09 04:20:59;;;;;;;13.15;6.28;;;;;;;22.67;44.67;102824.88;5037704;28;20021;-76
2022/08/09 04:23:25;;;;;;;9.80;6.80;;;;;;;22.65;44.94;102824.38;5055499;28;20472;-76
2022/08/09 04:25:52;;;;;;;11.27;7.00;;;;;;;22.67;44.94;102826.81;5055399;28;20104;-76
2022/08/09 04:28:22;;;;;;;9.75;5.68;;;;;;;22.60;44.82;102830.19;5037463;28;20025;-87
2022/08/09 04:30:47;;;;;;;;;;;;;;;22.59;44.87;102831.31;5055901;28;20029;-84
2022/08/09 04:33:13;;;;;;;7.85;6.22;;;;;;;22.58;44.75;102835.28;5055536;28;20299;-81
2022/08/09 04:35:41;;;;;;;8.93;6.13;;;;;;;22.54;44.67;102839.94;5055256;28;20091;-86
2022/08/09 04:38:07;;;;;;;9.18;6.88;;;;;;;22.50;44.92;102838.97;5055155;28;20033;-76
2022/08/09 04:40:48;;;;;;;11.13;8.00;;;;;;;22.46;45.12;102845.59;5055308;28;20029;-76
2022/08/09 04:43:15;;;;;;;15.90;8.63;;;;;;;22.51;44.90;102842.56;5055725;28;20024;-86
2022/08/09 04:45:40;;;;;;;14.70;11.25;;;;;;;22.50;45.07;102844.53;5055196;28;20033;-77
2022/08/09 04:48:06;;;;;;;12.02;7.65;;;;;;;22.44;44.96;102843.13;5055279;28;20479;-76
2022/08/09 04:50:32;;;;;;;14.20;7.18;;;;;;;22.43;45.25;102841.50;5055136;28;20553;-76
2022/08/09 04:52:57;;;;;;;11.68;6.97;;;;;;;22.50;44.87;102844.53;5054171;28;20438;-83
2022/08/09 04:55:23;;;;;;;10.00;7.07;;;;;;;22.50;45.03;102850.13;5054857;28;20055;-76
2022/08/09 04:57:49;;;;;;;10.00;9.00;;;;;;;22.41;45.15;102852.19;5054952;28;20127;-76
2022/08/09 05:00:14;;;;;;;12.70;9.00;;;;;;;22.41;45.18;102853.00;5055186;28;20071;-85
2022/08/09 05:02:42;;;;;;;10.68;8.18;;;;;;;22.36;45.33;102850.41;5055265;28;20029;-83
2022/08/09 05:05:09;;;;;;;12.07;10.38;;;;;;;22.43;45.24;102847.06;5054982;28;20479;-86
2022/08/09 05:07:35;;;;;;;16.30;7.80;;;;;;;22.33;45.76;102853.09;5054946;28;20387;-83
2022/08/09 05:10:01;;;;;;;12.63;6.28;;;;;;;22.39;45.55;102846.16;5054609;28;20027;-76
2022/08/09 05:12:26;;;;;;;15.80;8.65;;;;;;;22.31;45.79;102844.28;5054580;28;20531;-76
2022/08/09 05:14:52;;;;;;;13.25;8.35;;;;;;;22.37;45.49;102846.50;5054478;28;20025;-76
2022/08/09 05:17:18;;;;;;;11.57;8.02;;;;;;;22.41;45.19;102849.41;5054718;28;20021;-78
2022/08/09 05:19:43;;;;;;;8.68;6.75;;;;;;;22.39;45.64;102855.31;5054788;28;20510;-87
2022/08/09 05:22:11;;;;;;;10.85;6.70;;;;;;;22.42;45.57;102859.38;5054495;28;20525;-85
2022/08/09 05:24:37;;;;;;;13.45;12.25;;;;;;;22.47;45.63;102861.97;5054554;28;20021;-83
2022/08/09 05:27:03;;;;;;;13.48;10.30;;;;;;;22.46;45.86;102859.53;5054306;28;20379;-76
2022/08/09 05:29:28;;;;;;;14.30;11.88;;;;;;;22.48;45.63;102858.00;5070092;28;20055;-76
2022/08/09 05:31:58;;;;;;;16.77;15.38;;;;;;;22.52;45.85;102864.53;5054432;28;20070;-77
2022/08/09 05:34:31;;;;;;;8.52;6.85;;;;;;;22.55;45.82;102868.59;5054117;28;20399;-86
2022/08/09 05:36:57;;;;;;;10.50;7.15;;;;;;;22.58;45.97;102862.31;5054292;28;20021;-81
2022/08/09 05:39:24;;;;;;;14.70;10.40;;;;;;;22.58;46.00;102867.91;5054447;28;20024;-76
2022/08/09 05:41:50;;;;;;;12.77;9.98;;;;;;;22.63;46.09;102874.06;5054720;28;20025;-87
2022/08/09 05:44:16;;;;;;;11.90;7.32;;;;;;;22.74;45.86;102873.63;5054180;28;20032;-88
2022/08/09 05:46:42;;;;;;;12.48;8.63;;;;;;;22.67;46.16;102877.81;5054288;28;20029;-84
2022/08/09 05:49:08;;;;;;;11.77;10.65;;;;;;;22.68;46.47;102873.88;5054199;28;20493;-76
2022/08/09 05:51:34;;;;;;;9.95;9.05;;;;;;;22.79;46.19;102881.78;5054410;28;20102;-76
2022/08/09 05:53:59;;;;;;;12.00;6.75;;;;;;;22.84;46.46;102878.78;5054042;28;20479;-87
2022/08/09 05:56:27;;;;;;;7.97;5.95;;;;;;;22.84;46.85;102881.56;5054130;28;20036;-76
2022/08/09 05:58:56;;;;;;;7.93;7.15;;;;;;;22.90;46.88;102885.78;5053951;28;20033;-87
2022/08/09 06:01:28;;;;;;;;;;;;;;;22.89;47.49;102895.28;5054203;28;20048;-76
2022/08/09 06:03:58;;;;;;;10.63;6.88;;;;;;;23.04;47.40;102897.41;5053598;28;19919;-76
2022/08/09 06:06:24;;;;;;;15.48;14.25;;;;;;;23.06;47.53;102905.44;5053655;28;20032;-80
2022/08/09 06:08:50;;;;;;;13.15;9.90;;;;;;;23.11;47.56;102908.00;5053656;28;20435;-86
2022/08/09 06:11:16;;;;;;;8.63;7.65;;;;;;;23.23;47.59;102910.81;5053439;28;20079;-86
2022/08/09 06:13:42;;;;;;;8.15;6.63;;;;;;;23.38;47.11;102906.50;5053537;28;20037;-80
2022/08/09 06:16:09;;;;;;;8.68;5.53;;;;;;;23.46;47.20;102892.44;5053743;28;20094;-76
2022/08/09 06:18:34;;;;;;;12.38;6.70;;;;;;;23.58;47.23;102902.78;5053511;28;20033;-85
2022/08/09 06:21:00;;;;;;;9.70;6.25;;;;;;;23.58;47.22;102899.16;5035230;28;20040;-75
2022/08/09 06:23:30;;;;;;;8.73;5.38;;;;;;;23.64;46.84;102898.59;5034933;28;20074;-76
2022/08/09 06:25:56;;;;;;;7.43;5.40;;;;;;;23.51;47.59;102908.16;5052809;28;20033;-83
2022/08/09 06:28:22;;;;;;;9.23;7.55;;;;;;;23.72;47.18;102900.44;5052891;28;20025;-75
2022/08/09 06:30:47;;;;;;;15.55;12.20;;;;;;;23.83;46.65;102903.59;5052949;28;20031;-75
2022/08/09 06:33:13;;;;;;;7.68;5.75;;;;;;;23.88;46.69;102908.94;5067828;28;20021;-75
2022/08/09 06:35:38;;;;;;;10.30;5.65;;;;;;;24.07;46.37;102905.50;5034945;28;20090;-77
2022/08/09 06:38:04;;;;;;;10.63;5.65;;;;;;;23.92;46.80;102909.03;5035298;28;20028;-77
2022/08/09 06:40:30;;;;;;;9.07;6.20;;;;;;;23.93;47.17;102910.66;5052708;28;20033;-75
2022/08/09 06:42:56;;;;;;;8.85;7.22;;;;;;;23.95;47.14;102906.34;5052730;28;20471;-77
2022/08/09 06:45:23;;;;;;;25.42;8.18;;;;;;;24.05;46.96;102908.66;5053221;28;20021;-78
2022/08/09 06:47:49;;;;;;;11.75;9.90;;;;;;;23.96;47.13;102904.38;5052837;28;20021;-77
2022/08/09 06:50:15;;;;;;;10.05;9.02;;;;;;;24.24;46.64;102901.59;5034706;28;20040;-88
2022/08/09 06:52:44;;;;;;;10.77;7.80;;;;;;;24.29;46.46;102902.19;5036043;28;20021;-95
2022/08/09 06:55:20;;;;;;;13.07;5.65;;;;;;;24.22;46.76;102899.16;5036026;28;20091;-78
2022/08/09 06:57:46;;;;;;;9.30;5.28;;;;;;;24.58;45.90;102900.22;5034876;28;20458;-94
2022/08/09 07:00:12;;;;;;;75.03;15.30;;;;;;;24.59;45.74;102894.28;5052968;28;20052;-78
2022/08/09 07:02:39;;;;;;;72.07;14.95;;;;;;;24.76;45.95;102901.50;5052805;28;20029;-78
2022/08/09 07:05:05;;;;;;;42.80;10.25;;;;;;;24.89;45.71;102897.47;5052869;28;20120;-78
2022/08/09 07:07:31;;;;;;;41.10;9.15;;;;;;;24.87;46.04;102907.41;5052596;28;20043;-77
2022/08/09 07:09:56;;;;;;;61.28;11.75;;;;;;;25.07;45.74;102902.72;5052981;28;20029;-89
2022/08/09 07:12:22;;;;;;;9.77;5.82;;;;;;;25.17;45.50;102902.22;5035757;28;20087;-79
2022/08/09 07:14:48;;;;;;;57.78;11.38;;;;;;;25.29;45.50;102907.69;5052743;28;20036;-78
2022/08/09 07:17:14;;;;;;;20.50;6.25;;;;;;;25.26;45.51;102900.03;5054360;28;20021;-79
2022/08/09 07:19:40;;;;;;;20.77;5.75;;;;;;;25.28;45.55;102905.25;5056804;28;20163;-78
2022/08/09 07:22:06;;;;;;;48.90;11.02;;;;;;;25.17;45.86;102905.00;5056841;28;20368;-79
2022/08/09 07:24:32;;;;;;;51.92;10.13;;;;;;;25.40;45.47;102894.78;5057047;28;20070;-80
2022/08/09 07:26:59;;;;;;;18.33;6.40;;;;;;;25.49;45.43;102899.38;5056709;28;20476;-79
2022/08/09 07:29:27;;;;;;;36.65;8.63;;;;;;;25.35;45.86;102903.44;5056804;28;20476;-78
2022/08/09 07:31:53;;;;;;;65.07;12.70;;;;;;;25.58;45.06;102897.19;5056690;28;20025;-86
2022/08/09 07:34:18;;;;;;;49.90;10.93;;;;;;;25.44;45.26;102904.06;5057109;28;20628;-84
2022/08/09 07:36:44;;;;;;;28.20;9.45;;;;;;;25.51;45.24;102905.41;5055820;28;20103;-78
2022/08/09 07:39:10;;;;;;;34.97;8.75;;;;;;;25.63;44.88;102908.13;5055262;28;20064;-78
2022/08/09 07:41:36;;;;;;;28.15;8.13;;;;;;;25.48;45.45;102904.16;5056142;28;20017;-78
2022/08/09 07:44:02;;;;;;;9.25;4.90;;;;;;;25.34;45.62;102907.44;5056382;28;20029;-78
2022/08/09 07:46:28;;;;;;;7.43;4.90;;;;;;;25.43;45.14;102901.63;5056008;28;20525;-79
2022/08/09 07:48:54;;;;;;;7.93;4.65;;;;;;;25.46;44.93;102904.50;5055459;28;20025;-80
2022/08/09 07:51:20;;;;;;;72.50;12.98;;;;;;;25.45;45.35;102902.88;5056243;28;20021;-79
2022/08/09 07:53:48;;;;;;;14.45;4.88;;;;;;;25.63;44.94;102903.31;5056119;28;20029;-82
2022/08/09 07:56:13;;;;;;;9.57;4.82;;;;;;;25.69;44.99;102907.47;5056101;28;20024;-78
2022/08/09 07:58:39;;;;;;;6.60;4.28;;;;;;;25.80;44.79;102907.72;5054635;28;20523;-78
2022/08/09 08:01:05;;;;;;;10.77;4.78;;;;;;;25.85;44.57;102915.06;5054788;28;20033;-80
2022/08/09 08:03:30;;;;;;;8.88;4.03;;;;;;;26.10;44.29;102916.41;5054851;28;20415;-78
2022/08/09 08:05:56;;;;;;;10.25;4.00;;;;;;;25.97;44.44;102918.50;5055832;28;20021;-78
2022/08/09 08:08:23;;;;;;;9.35;3.97;;;;;;;26.14;44.22;102911.66;5055160;28;20111;-82
2022/08/09 08:10:50;;;;;;;47.05;8.15;;;;;;;26.58;43.38;102907.78;5055533;28;20017;-78
2022/08/09 08:13:15;;;;;;;16.83;5.57;;;;;;;26.68;43.38;102918.41;5056247;28;20021;-86
2022/08/09 08:15:41;;;;;;;12.88;3.97;;;;;;;26.83;42.82;102921.09;5056051;28;20028;-78
2022/08/09 08:18:07;;;;;;;72.88;11.95;;;;;;;26.95;42.75;102917.28;5055762;28;20103;-90
2022/08/09 08:20:33;;;;;;;15.95;4.60;;;;;;;27.15;42.25;102926.50;5056038;28;20104;-90
2022/08/09 08:23:01;;;;;;;9.05;4.07;;;;;;;27.02;42.54;102923.03;5038176;28;20056;-76
2022/08/09 08:25:27;;;;;;;13.23;4.57;;;;;;;27.33;42.11;102918.34;5055501;28;20021;-77
2022/08/09 08:27:52;;;;;;;16.35;4.30;;;;;;;27.44;41.85;102922.16;5055431;28;20525;-78
2022/08/09 08:30:18;;;;;;;20.42;4.60;;;;;;;27.47;41.68;102921.41;5055466;28;20025;-77
2022/08/09 08:32:44;;;;;;;5.88;2.97;;;;;;;27.64;41.41;102922.84;5055493;28;20124;-89
2022/08/09 08:35:10;;;;;;;7.90;3.70;;;;;;;27.72;41.32;102923.78;5055350;28;20543;-85
2022/08/09 08:37:36;;;;;;;12.57;3.25;;;;;;;27.87;40.96;102914.38;5055420;28;20071;-77
2022/08/09 08:40:06;;;;;;;9.80;3.20;;;;;;;27.92;40.99;102908.44;5055167;28;20116;-78
2022/08/09 08:42:32;;;;;;;8.73;3.15;;;;;;;27.97;40.94;102913.72;5055262;28;20017;-78
2022/08/09 08:44:59;;;;;;;16.50;3.30;;;;;;;28.11;40.46;102902.69;5055200;28;20025;-78
2022/08/09 08:47:29;;;;;;;10.90;3.40;;;;;;;27.92;40.63;102911.25;5054915;28;20032;-83
2022/08/09 08:49:58;;;;;;;8.48;2.75;;;;;;;28.16;40.14;102913.56;5037111;28;20048;-78
2022/08/09 08:52:28;;;;;;;12.43;3.00;;;;;;;28.29;40.11;102916.13;5090358;28;20027;-90
2022/08/09 08:54:55;;;;;;;9.52;3.55;;;;;;;28.37;39.99;102906.63;5077244;28;20024;-82
2022/08/09 08:57:22;;;;;;;6.03;2.30;;;;;;;28.45;39.52;102908.31;5095327;28;20064;-78
2022/08/09 08:59:49;;;;;;;11.90;2.72;;;;;;;28.64;39.05;102905.34;5095092;28;20058;-82
2022/08/09 09:02:25;;;;;;;5.72;2.20;;;;;;;28.68;39.26;102906.16;5096349;28;20024;-83
2022/08/09 09:04:53;;;;;;;3.65;1.98;;;;;;;28.87;38.86;102907.13;5095838;28;20024;-89
2022/08/09 09:07:19;;;;;;;4.65;1.80;;;;;;;28.96;38.56;102907.69;5095456;28;20482;-79
2022/08/09 09:09:51;;;;;;;5.90;2.05;;;;;;;29.05;38.35;102908.16;5095458;28;20074;-78
2022/08/09 09:12:25;;;;;;;12.55;3.28;;;;;;;29.20;37.77;102907.06;5095576;28;20024;-80
2022/08/09 09:14:55;;;;;;;6.07;1.80;;;;;;;29.21;37.56;102905.06;5095512;28;20032;-90
2022/08/09 09:17:21;;;;;;;8.18;2.20;;;;;;;29.16;37.17;102909.03;5095388;28;20069;-85
2022/08/09 09:19:47;;;;;;;52.58;7.40;;;;;;;29.51;36.78;102905.72;5096015;28;20032;-89
2022/08/09 09:22:15;;;;;;;10.32;2.55;;;;;;;29.76;36.32;102900.22;5095566;28;20495;-80
2022/08/09 09:24:47;;;;;;;17.15;3.08;;;;;;;29.85;36.17;102897.03;5095510;28;20161;-80
2022/08/09 09:27:21;;;;;;;17.02;3.00;;;;;;;29.91;36.30;102903.13;5089554;28;20110;-83
2022/08/09 09:29:46;;;;;;;6.28;1.40;;;;;;;30.01;35.55;102900.38;5087784;28;20364;-84
2022/08/09 09:32:20;;;;;;;7.57;1.70;;;;;;;30.00;34.65;102901.56;5060936;28;20040;-79
2022/08/09 09:35:05;;;;;;;9.48;2.60;;;;;;;30.25;34.87;102895.25;5054153;28;20071;-84
2022/08/09 09:37:31;;;;;;;28.40;4.53;;;;;;;30.36;34.96;102893.25;5054005;28;20044;-79
2022/08/09 09:39:56;;;;;;;20.40;4.07;;;;;;;30.54;34.81;102904.63;5067750;28;20391;-77
2022/08/09 09:42:24;;;;;;;11.40;4.03;;;;;;;30.68;35.16;102896.19;5073213;28;20032;-78
2022/08/09 09:45:01;;;;;;;10.80;3.05;;;;;;;30.50;35.06;102896.13;5055420;28;20415;-84
2022/08/09 09:47:28;;;;;;;30.70;5.63;;;;;;;30.54;35.28;102887.69;5056395;28;20105;-78
2022/08/09 09:49:56;;;;;;;25.85;5.28;;;;;;;30.60;35.37;102900.16;5055998;28;20031;-78
2022/08/09 09:52:22;;;;;;;10.95;3.17;;;;;;;30.65;35.30;102897.75;5062068;28;20395;-86
2022/08/09 09:54:48;;;;;;;12.73;4.22;;;;;;;30.57;34.99;102896.13;5040481;28;20016;-86
2022/08/09 09:57:17;;;;;;;7.38;3.13;;;;;;;30.55;34.69;102903.41;5040471;28;20020;-79
2022/08/09 09:59:44;;;;;;;8.27;3.03;;;;;;;30.73;33.80;102906.28;5057249;28;20479;-80
2022/08/09 10:02:10;;;;;;;13.35;3.30;;;;;;;30.67;34.25;102901.00;5070636;28;20028;-86
2022/08/09 10:04:36;;;;;;;9.77;2.95;;;;;;;30.80;33.69;102901.44;5059178;28;20509;-81
2022/08/09 10:07:02;;;;;;;8.02;2.80;;;;;;;30.73;33.75;102909.91;5067833;28;20071;-84
2022/08/09 10:09:44;;;;;;;7.30;3.30;;;;;;;30.91;33.76;102904.28;5061251;28;20060;-78
2022/08/09 10:12:09;;;;;;;5.68;2.60;;;;;;;30.92;33.73;102909.53;5056576;28;20032;-81
2022/08/09 10:14:35;;;;;;;18.15;3.72;;;;;;;30.91;33.29;102913.56;5058479;28;20029;-79
2022/08/09 10:17:10;;;;;;;82.20;12.43;;;;;;;30.86;32.94;102913.97;5058273;28;20663;-79
2022/08/09 10:19:36;;;;;;;18.10;3.33;;;;;;;30.94;33.22;102906.31;5057317;28;20074;-79
2022/08/09 10:22:02;;;;;;;14.45;3.13;;;;;;;30.93;33.26;102905.50;5056867;28;20445;-79
2022/08/09 10:24:28;;;;;;;10.45;2.40;;;;;;;30.88;33.27;102900.25;5056793;28;20024;-79
2022/08/09 10:26:56;;;;;;;6.07;2.28;;;;;;;30.99;32.99;102899.47;5057322;28;20489;-80
2022/08/09 10:29:23;;;;;;;6.65;2.78;;;;;;;30.92;32.64;102901.06;5058704;28;20044;-85
2022/08/09 10:31:48;;;;;;;31.50;6.22;;;;;;;30.94;32.82;102904.28;5058475;28;20021;-84
2022/08/09 10:34:15;;;;;;;8.55;2.65;;;;;;;30.99;32.34;102899.47;5057664;28;20533;-83
2022/08/09 10:36:41;;;;;;;4.85;2.65;;;;;;;31.01;32.42;102900.66;5041372;28;20107;-80
2022/08/09 10:39:07;;;;;;;21.27;6.22;;;;;;;31.17;32.54;102901.06;5057208;28;20113;-78
2022/08/09 10:41:34;;;;;;;11.82;3.63;;;;;;;31.18;33.46;102907.50;5056806;28;20494;-78
2022/08/09 10:44:00;;;;;;;7.13;3.78;;;;;;;30.87;34.11;102907.09;5056890;28;20119;-79
2022/08/09 10:46:46;;;;;;;41.42;8.48;;;;;;;30.92;34.10;102905.91;5067465;28;20115;-78
2022/08/09 10:49:17;;;;;;;22.80;4.43;;;;;;;30.98;33.72;102903.47;5056622;28;20103;-78
2022/08/09 10:52:09;;;;;;;5.20;2.40;;;;;;;31.11;33.22;102908.31;5064148;28;20070;-79
2022/08/09 10:54:35;;;;;;;4.65;2.92;;;;;;;31.05;33.31;102909.91;5059886;28;20028;-82
2022/08/09 10:57:09;;;;;;;13.07;3.63;;;;;;;31.08;32.99;102902.69;5058668;28;20027;-80
2022/08/09 10:59:36;;;;;;;7.07;3.13;;;;;;;30.85;33.40;102912.34;5059224;28;20483;-80
2022/08/09 11:02:04;;;;;;;14.98;3.75;;;;;;;30.84;33.15;102901.47;5058585;28;20043;-79
2022/08/09 11:04:30;;;;;;;29.77;6.03;;;;;;;30.97;33.32;102899.84;5057629;28;20025;-78
2022/08/09 11:06:58;;;;;;;4.38;2.60;;;;;;;31.14;33.38;102901.88;5057446;28;20028;-77
2022/08/09 11:09:36;;;;;;;6.63;3.20;;;;;;;30.94;33.35;102903.47;5069176;28;20024;-83
2022/08/09 11:12:11;;;;;;;7.95;2.95;;;;;;;31.09;34.01;102902.28;5072041;28;20072;-80
2022/08/09 11:14:53;;;;;;;14.55;3.65;;;;;;;31.20;33.88;102905.88;5071889;28;20423;-81
2022/08/09 11:17:19;;;;;;;9.07;3.20;;;;;;;31.23;33.93;102904.31;5086916;28;20043;-80
2022/08/09 11:20:03;;;;;;;10.38;4.10;;;;;;;31.35;32.95;102894.59;5091847;28;20024;-80
2022/08/09 11:22:43;;;;;;;46.50;8.30;;;;;;;31.28;32.96;102909.53;5082586;28;20415;-81
2022/08/09 11:25:34;;;;;;;16.05;5.13;;;;;;;31.19;33.42;102909.13;5071780;28;20021;-79
2022/08/09 11:28:01;;;;;;;7.57;4.38;;;;;;;31.18;33.61;102902.66;5051550;28;20061;-78